sensor_id;sensor_type;location;lat;lon;timestamp;P1;durP1;ratioP1;P2;durP2;ratioP2
77280;SDS011;66339;47.262;17.144;2023-09-08T00:01:39;4.30;;;3.35;;
77280;SDS011;66339;47.262;17.144;2023-09-08T00:04:07;5.97;;;3.12;;
77280;SDS011;66339;47.262;17.144;2023-09-08T00:06:35;6.87;;;3.28;;
77280;SDS011;66339;47.262;17.144;2023-09-08T00:09:03;4.78;;;3.20;;
77280;SDS011;66339;47.262;17.144;2023-09-08T00:11:30;4.68;;;3.17;;
77280;SDS011;66339;47.262;17.144;2023-09-08T00:13:57;4.28;;;3.10;;
77280;SDS011;66339;47.262;17.144;2023-09-08T00:16:26;5.50;;;3.17;;
77280;SDS011;66339;47.262;17.144;2023-09-08T00:18:53;4.93;;;3.30;;
77280;SDS011;66339;47.262;17.144;2023-09-08T00:21:27;4.82;;;3.10;;
77280;SDS011;66339;47.262;17.144;2023-09-08T00:23:54;4.95;;;3.37;;
77280;SDS011;66339;47.262;17.144;2023-09-08T00:26:22;5.22;;;3.62;;
77280;SDS011;66339;47.262;17.144;2023-09-08T00:28:52;3.85;;;3.00;;
77280;SDS011;66339;47.262;17.144;2023-09-08T00:31:20;6.97;;;3.58;;
77280;SDS011;66339;47.262;17.144;2023-09-08T00:33:51;5.47;;;3.30;;
77280;SDS011;66339;47.262;17.144;2023-09-08T00:36:22;4.30;;;3.03;;
77280;SDS011;66339;47.262;17.144;2023-09-08T00:38:53;5.15;;;3.12;;
77280;SDS011;66339;47.262;17.144;2023-09-08T00:41:20;4.35;;;3.20;;
77280;SDS011;66339;47.262;17.144;2023-09-08T00:43:51;4.35;;;3.08;;
77280;SDS011;66339;47.262;17.144;2023-09-08T00:46:18;4.82;;;3.20;;
77280;SDS011;66339;47.262;17.144;2023-09-08T00:48:49;5.53;;;3.20;;
77280;SDS011;66339;47.262;17.144;2023-09-08T00:51:20;4.43;;;3.10;;
77280;SDS011;66339;47.262;17.144;2023-09-08T00:53:49;5.95;;;3.37;;
77280;SDS011;66339;47.262;17.144;2023-09-08T00:56:17;5.78;;;3.20;;
77280;SDS011;66339;47.262;17.144;2023-09-08T00:58:45;4.12;;;3.03;;
77280;SDS011;66339;47.262;17.144;2023-09-08T01:01:14;6.53;;;3.60;;
77280;SDS011;66339;47.262;17.144;2023-09-08T01:03:45;5.15;;;3.10;;
77280;SDS011;66339;47.262;17.144;2023-09-08T01:06:15;5.37;;;3.20;;
77280;SDS011;66339;47.262;17.144;2023-09-08T01:08:43;4.50;;;3.20;;
77280;SDS011;66339;47.262;17.144;2023-09-08T01:11:13;3.83;;;2.65;;
77280;SDS011;66339;47.262;17.144;2023-09-08T01:13:45;4.53;;;3.33;;
77280;SDS011;66339;47.262;17.144;2023-09-08T01:16:13;5.25;;;3.45;;
77280;SDS011;66339;47.262;17.144;2023-09-08T01:18:41;5.07;;;3.25;;
77280;SDS011;66339;47.262;17.144;2023-09-08T01:27:05;4.60;;;3.17;;
77280;SDS011;66339;47.262;17.144;2023-09-08T01:29:33;4.32;;;3.30;;
77280;SDS011;66339;47.262;17.144;2023-09-08T01:32:08;5.62;;;3.37;;
77280;SDS011;66339;47.262;17.144;2023-09-08T01:34:38;4.57;;;3.20;;
77280;SDS011;66339;47.262;17.144;2023-09-08T01:37:06;4.03;;;3.10;;
77280;SDS011;66339;47.262;17.144;2023-09-08T01:39:34;4.68;;;3.30;;
77280;SDS011;66339;47.262;17.144;2023-09-08T01:42:05;4.20;;;3.17;;
77280;SDS011;66339;47.262;17.144;2023-09-08T01:44:37;4.45;;;2.90;;
77280;SDS011;66339;47.262;17.144;2023-09-08T01:47:07;4.78;;;3.50;;
77280;SDS011;66339;47.262;17.144;2023-09-08T01:49:37;5.70;;;3.40;;
77280;SDS011;66339;47.262;17.144;2023-09-08T01:52:05;5.37;;;3.25;;
77280;SDS011;66339;47.262;17.144;2023-09-08T01:54:32;4.57;;;3.35;;
77280;SDS011;66339;47.262;17.144;2023-09-08T01:56:59;5.60;;;3.25;;
77280;SDS011;66339;47.262;17.144;2023-09-08T01:59:29;6.70;;;3.00;;
77280;SDS011;66339;47.262;17.144;2023-09-08T02:01:56;7.12;;;3.20;;
77280;SDS011;66339;47.262;17.144;2023-09-08T02:04:27;4.47;;;3.30;;
77280;SDS011;66339;47.262;17.144;2023-09-08T02:06:55;4.37;;;3.45;;
77280;SDS011;66339;47.262;17.144;2023-09-08T02:09:31;5.53;;;3.22;;
77280;SDS011;66339;47.262;17.144;2023-09-08T02:12:00;4.07;;;3.08;;
77280;SDS011;66339;47.262;17.144;2023-09-08T02:14:29;4.82;;;3.25;;
77280;SDS011;66339;47.262;17.144;2023-09-08T02:17:00;4.90;;;3.15;;
77280;SDS011;66339;47.262;17.144;2023-09-08T02:19:30;5.70;;;3.80;;
77280;SDS011;66339;47.262;17.144;2023-09-08T02:22:01;5.10;;;3.33;;
77280;SDS011;66339;47.262;17.144;2023-09-08T02:24:31;5.93;;;3.53;;
77280;SDS011;66339;47.262;17.144;2023-09-08T02:27:01;6.57;;;3.25;;
77280;SDS011;66339;47.262;17.144;2023-09-08T02:29:30;4.75;;;3.17;;
77280;SDS011;66339;47.262;17.144;2023-09-08T02:32:04;6.03;;;3.60;;
77280;SDS011;66339;47.262;17.144;2023-09-08T02:34:36;5.10;;;3.25;;
77280;SDS011;66339;47.262;17.144;2023-09-08T02:37:03;6.20;;;3.28;;
77280;SDS011;66339;47.262;17.144;2023-09-08T02:39:32;5.47;;;3.20;;
77280;SDS011;66339;47.262;17.144;2023-09-08T02:42:04;6.25;;;3.67;;
77280;SDS011;66339;47.262;17.144;2023-09-08T02:44:42;4.62;;;3.25;;
77280;SDS011;66339;47.262;17.144;2023-09-08T02:47:11;6.90;;;2.90;;
77280;SDS011;66339;47.262;17.144;2023-09-08T02:49:39;4.57;;;3.08;;
77280;SDS011;66339;47.262;17.144;2023-09-08T02:52:07;6.95;;;3.35;;
77280;SDS011;66339;47.262;17.144;2023-09-08T02:54:34;6.15;;;3.12;;
77280;SDS011;66339;47.262;17.144;2023-09-08T02:57:02;6.45;;;3.25;;
77280;SDS011;66339;47.262;17.144;2023-09-08T02:59:29;4.50;;;3.00;;
77280;SDS011;66339;47.262;17.144;2023-09-08T03:01:57;4.20;;;3.12;;
77280;SDS011;66339;47.262;17.144;2023-09-08T03:04:31;4.82;;;3.17;;
77280;SDS011;66339;47.262;17.144;2023-09-08T03:06:59;4.82;;;3.75;;
77280;SDS011;66339;47.262;17.144;2023-09-08T03:09:26;5.50;;;3.40;;
77280;SDS011;66339;47.262;17.144;2023-09-08T03:11:53;4.65;;;3.03;;
77280;SDS011;66339;47.262;17.144;2023-09-08T03:14:21;4.55;;;3.35;;
77280;SDS011;66339;47.262;17.144;2023-09-08T03:16:49;4.10;;;3.10;;
77280;SDS011;66339;47.262;17.144;2023-09-08T03:19:18;7.18;;;3.22;;
77280;SDS011;66339;47.262;17.144;2023-09-08T03:21:46;5.72;;;3.45;;
77280;SDS011;66339;47.262;17.144;2023-09-08T03:24:15;5.82;;;3.37;;
77280;SDS011;66339;47.262;17.144;2023-09-08T03:26:51;4.75;;;2.72;;
77280;SDS011;66339;47.262;17.144;2023-09-08T03:29:19;5.32;;;3.40;;
77280;SDS011;66339;47.262;17.144;2023-09-08T03:31:58;5.05;;;3.22;;
77280;SDS011;66339;47.262;17.144;2023-09-08T03:34:26;5.85;;;3.40;;
77280;SDS011;66339;47.262;17.144;2023-09-08T03:36:57;5.50;;;3.60;;
77280;SDS011;66339;47.262;17.144;2023-09-08T03:39:28;7.45;;;3.65;;
77280;SDS011;66339;47.262;17.144;2023-09-08T03:41:56;7.10;;;3.50;;
77280;SDS011;66339;47.262;17.144;2023-09-08T03:44:27;5.90;;;3.50;;
77280;SDS011;66339;47.262;17.144;2023-09-08T03:46:58;3.92;;;3.00;;
77280;SDS011;66339;47.262;17.144;2023-09-08T03:49:29;6.25;;;3.28;;
77280;SDS011;66339;47.262;17.144;2023-09-08T03:51:57;4.37;;;3.00;;
77280;SDS011;66339;47.262;17.144;2023-09-08T03:54:25;7.43;;;3.50;;
77280;SDS011;66339;47.262;17.144;2023-09-08T03:56:53;4.90;;;3.35;;
77280;SDS011;66339;47.262;17.144;2023-09-08T03:59:23;5.80;;;3.10;;
77280;SDS011;66339;47.262;17.144;2023-09-08T04:01:50;4.03;;;3.03;;
77280;SDS011;66339;47.262;17.144;2023-09-08T04:04:17;5.10;;;3.25;;
77280;SDS011;66339;47.262;17.144;2023-09-08T04:06:44;4.00;;;3.25;;
77280;SDS011;66339;47.262;17.144;2023-09-08T04:09:12;4.18;;;3.12;;
77280;SDS011;66339;47.262;17.144;2023-09-08T04:11:40;5.32;;;3.25;;
77280;SDS011;66339;47.262;17.144;2023-09-08T04:14:08;6.53;;;3.17;;
77280;SDS011;66339;47.262;17.144;2023-09-08T04:16:41;5.45;;;3.50;;
77280;SDS011;66339;47.262;17.144;2023-09-08T04:19:10;7.20;;;3.22;;
77280;SDS011;66339;47.262;17.144;2023-09-08T04:21:37;4.53;;;3.10;;
77280;SDS011;66339;47.262;17.144;2023-09-08T04:24:04;7.18;;;3.12;;
77280;SDS011;66339;47.262;17.144;2023-09-08T04:26:32;5.55;;;3.10;;
77280;SDS011;66339;47.262;17.144;2023-09-08T04:28:59;4.37;;;3.10;;
77280;SDS011;66339;47.262;17.144;2023-09-08T04:31:27;3.87;;;2.92;;
77280;SDS011;66339;47.262;17.144;2023-09-08T04:33:55;5.15;;;3.35;;
77280;SDS011;66339;47.262;17.144;2023-09-08T04:36:23;4.12;;;3.00;;
77280;SDS011;66339;47.262;17.144;2023-09-08T04:38:52;4.47;;;2.97;;
77280;SDS011;66339;47.262;17.144;2023-09-08T04:41:19;4.65;;;2.92;;
77280;SDS011;66339;47.262;17.144;2023-09-08T04:43:50;6.00;;;3.10;;
77280;SDS011;66339;47.262;17.144;2023-09-08T04:46:17;4.18;;;2.87;;
77280;SDS011;66339;47.262;17.144;2023-09-08T04:48:48;6.20;;;2.97;;
77280;SDS011;66339;47.262;17.144;2023-09-08T04:51:18;8.57;;;3.42;;
77280;SDS011;66339;47.262;17.144;2023-09-08T04:53:47;5.82;;;3.35;;
77280;SDS011;66339;47.262;17.144;2023-09-08T04:56:16;7.03;;;3.10;;
77280;SDS011;66339;47.262;17.144;2023-09-08T04:58:45;6.72;;;2.97;;
77280;SDS011;66339;47.262;17.144;2023-09-08T05:01:13;4.62;;;3.20;;
77280;SDS011;66339;47.262;17.144;2023-09-08T05:03:49;6.05;;;3.10;;
77280;SDS011;66339;47.262;17.144;2023-09-08T05:06:20;5.00;;;3.12;;
77280;SDS011;66339;47.262;17.144;2023-09-08T05:08:48;5.15;;;3.15;;
77280;SDS011;66339;47.262;17.144;2023-09-08T05:11:18;7.15;;;3.40;;
77280;SDS011;66339;47.262;17.144;2023-09-08T05:13:50;5.82;;;3.12;;
77280;SDS011;66339;47.262;17.144;2023-09-08T05:16:28;4.35;;;2.90;;
77280;SDS011;66339;47.262;17.144;2023-09-08T05:18:57;5.07;;;3.10;;
77280;SDS011;66339;47.262;17.144;2023-09-08T05:21:26;6.03;;;3.08;;
77280;SDS011;66339;47.262;17.144;2023-09-08T05:23:59;5.28;;;3.25;;
77280;SDS011;66339;47.262;17.144;2023-09-08T05:26:26;4.12;;;2.92;;
77280;SDS011;66339;47.262;17.144;2023-09-08T05:28:55;4.53;;;2.78;;
77280;SDS011;66339;47.262;17.144;2023-09-08T05:31:24;4.87;;;3.00;;
77280;SDS011;66339;47.262;17.144;2023-09-08T05:33:59;5.87;;;3.12;;
77280;SDS011;66339;47.262;17.144;2023-09-08T05:36:34;5.82;;;2.78;;
77280;SDS011;66339;47.262;17.144;2023-09-08T05:39:01;5.05;;;3.05;;
77280;SDS011;66339;47.262;17.144;2023-09-08T05:41:31;8.00;;;2.92;;
77280;SDS011;66339;47.262;17.144;2023-09-08T05:44:01;5.28;;;2.85;;
77280;SDS011;66339;47.262;17.144;2023-09-08T05:46:29;3.70;;;2.75;;
77280;SDS011;66339;47.262;17.144;2023-09-08T05:48:57;5.62;;;2.95;;
77280;SDS011;66339;47.262;17.144;2023-09-08T05:51:24;5.53;;;2.75;;
77280;SDS011;66339;47.262;17.144;2023-09-08T05:53:51;6.25;;;3.17;;
77280;SDS011;66339;47.262;17.144;2023-09-08T05:56:19;4.47;;;3.00;;
77280;SDS011;66339;47.262;17.144;2023-09-08T05:58:46;5.05;;;3.00;;
77280;SDS011;66339;47.262;17.144;2023-09-08T06:01:14;4.85;;;2.72;;
77280;SDS011;66339;47.262;17.144;2023-09-08T06:03:53;3.58;;;2.78;;
77280;SDS011;66339;47.262;17.144;2023-09-08T06:06:27;3.75;;;2.87;;
77280;SDS011;66339;47.262;17.144;2023-09-08T06:08:54;4.87;;;2.78;;
77280;SDS011;66339;47.262;17.144;2023-09-08T06:11:22;5.68;;;2.90;;
77280;SDS011;66339;47.262;17.144;2023-09-08T06:13:49;5.70;;;3.30;;
77280;SDS011;66339;47.262;17.144;2023-09-08T06:16:17;5.53;;;2.70;;
77280;SDS011;66339;47.262;17.144;2023-09-08T06:18:47;4.35;;;3.08;;
77280;SDS011;66339;47.262;17.144;2023-09-08T06:21:17;5.82;;;3.10;;
77280;SDS011;66339;47.262;17.144;2023-09-08T06:23:45;5.53;;;3.20;;
77280;SDS011;66339;47.262;17.144;2023-09-08T06:26:18;6.72;;;3.30;;
77280;SDS011;66339;47.262;17.144;2023-09-08T06:28:46;5.65;;;3.00;;
77280;SDS011;66339;47.262;17.144;2023-09-08T06:31:17;7.05;;;2.95;;
77280;SDS011;66339;47.262;17.144;2023-09-08T06:33:44;8.57;;;3.40;;
77280;SDS011;66339;47.262;17.144;2023-09-08T06:36:14;5.35;;;3.60;;
77280;SDS011;66339;47.262;17.144;2023-09-08T06:38:45;8.88;;;4.60;;
77280;SDS011;66339;47.262;17.144;2023-09-08T06:41:17;5.15;;;3.90;;
77280;SDS011;66339;47.262;17.144;2023-09-08T06:43:47;7.95;;;4.15;;
77280;SDS011;66339;47.262;17.144;2023-09-08T06:46:14;7.87;;;4.53;;
77280;SDS011;66339;47.262;17.144;2023-09-08T06:48:42;14.38;;;5.18;;
77280;SDS011;66339;47.262;17.144;2023-09-08T06:51:17;10.88;;;4.30;;
77280;SDS011;66339;47.262;17.144;2023-09-08T06:53:44;7.37;;;3.87;;
77280;SDS011;66339;47.262;17.144;2023-09-08T06:56:23;9.85;;;4.12;;
77280;SDS011;66339;47.262;17.144;2023-09-08T06:58:54;9.32;;;4.20;;
77280;SDS011;66339;47.262;17.144;2023-09-08T07:01:24;10.85;;;4.35;;
77280;SDS011;66339;47.262;17.144;2023-09-08T07:03:55;7.30;;;4.18;;
77280;SDS011;66339;47.262;17.144;2023-09-08T07:06:26;7.35;;;3.95;;
77280;SDS011;66339;47.262;17.144;2023-09-08T07:08:54;6.80;;;3.70;;
77280;SDS011;66339;47.262;17.144;2023-09-08T07:11:28;5.37;;;3.30;;
77280;SDS011;66339;47.262;17.144;2023-09-08T07:13:55;9.90;;;4.30;;
77280;SDS011;66339;47.262;17.144;2023-09-08T07:16:29;8.32;;;3.87;;
77280;SDS011;66339;47.262;17.144;2023-09-08T07:18:59;6.20;;;3.80;;
77280;SDS011;66339;47.262;17.144;2023-09-08T07:21:34;5.72;;;3.78;;
77280;SDS011;66339;47.262;17.144;2023-09-08T07:24:01;6.40;;;3.87;;
77280;SDS011;66339;47.262;17.144;2023-09-08T07:26:28;6.00;;;3.75;;
77280;SDS011;66339;47.262;17.144;2023-09-08T07:28:55;8.73;;;3.97;;
77280;SDS011;66339;47.262;17.144;2023-09-08T07:31:25;9.13;;;3.83;;
77280;SDS011;66339;47.262;17.144;2023-09-08T07:33:52;5.37;;;3.67;;
77280;SDS011;66339;47.262;17.144;2023-09-08T07:36:22;15.40;;;3.78;;
77280;SDS011;66339;47.262;17.144;2023-09-08T07:38:50;6.68;;;3.35;;
77280;SDS011;66339;47.262;17.144;2023-09-08T07:41:20;7.60;;;3.72;;
77280;SDS011;66339;47.262;17.144;2023-09-08T07:43:51;8.00;;;3.85;;
77280;SDS011;66339;47.262;17.144;2023-09-08T07:46:18;11.10;;;3.95;;
77280;SDS011;66339;47.262;17.144;2023-09-08T07:48:49;7.87;;;3.58;;
77280;SDS011;66339;47.262;17.144;2023-09-08T07:51:23;9.48;;;3.92;;
77280;SDS011;66339;47.262;17.144;2023-09-08T07:53:50;9.18;;;3.58;;
77280;SDS011;66339;47.262;17.144;2023-09-08T07:56:20;6.75;;;4.35;;
77280;SDS011;66339;47.262;17.144;2023-09-08T07:58:47;8.57;;;3.97;;
77280;SDS011;66339;47.262;17.144;2023-09-08T08:01:20;6.65;;;3.67;;
77280;SDS011;66339;47.262;17.144;2023-09-08T08:06:20;10.32;;;3.90;;
77280;SDS011;66339;47.262;17.144;2023-09-08T08:08:48;7.05;;;4.70;;
77280;SDS011;66339;47.262;17.144;2023-09-08T08:11:16;12.77;;;4.47;;
77280;SDS011;66339;47.262;17.144;2023-09-08T08:13:46;6.32;;;4.53;;
77280;SDS011;66339;47.262;17.144;2023-09-08T08:16:17;9.23;;;4.90;;
77280;SDS011;66339;47.262;17.144;2023-09-08T08:18:45;7.97;;;4.57;;
77280;SDS011;66339;47.262;17.144;2023-09-08T08:21:16;9.45;;;4.50;;
77280;SDS011;66339;47.262;17.144;2023-09-08T08:23:44;6.60;;;4.00;;
77280;SDS011;66339;47.262;17.144;2023-09-08T08:26:11;8.35;;;4.45;;
77280;SDS011;66339;47.262;17.144;2023-09-08T08:31:14;8.05;;;4.22;;
77280;SDS011;66339;47.262;17.144;2023-09-08T08:33:44;8.63;;;4.62;;
77280;SDS011;66339;47.262;17.144;2023-09-08T08:36:15;9.05;;;4.47;;
77280;SDS011;66339;47.262;17.144;2023-09-08T08:38:43;11.70;;;4.62;;
77280;SDS011;66339;47.262;17.144;2023-09-08T08:41:12;8.63;;;4.65;;
77280;SDS011;66339;47.262;17.144;2023-09-08T08:43:50;9.00;;;4.28;;
77280;SDS011;66339;47.262;17.144;2023-09-08T08:46:22;8.68;;;4.40;;
77280;SDS011;66339;47.262;17.144;2023-09-08T08:48:50;11.15;;;4.25;;
77280;SDS011;66339;47.262;17.144;2023-09-08T08:51:21;10.43;;;4.80;;
77280;SDS011;66339;47.262;17.144;2023-09-08T08:53:50;8.27;;;4.25;;
77280;SDS011;66339;47.262;17.144;2023-09-08T08:56:20;8.27;;;4.10;;
77280;SDS011;66339;47.262;17.144;2023-09-08T08:58:53;9.13;;;4.00;;
77280;SDS011;66339;47.262;17.144;2023-09-08T09:01:24;8.82;;;4.30;;
77280;SDS011;66339;47.262;17.144;2023-09-08T09:03:57;9.15;;;4.40;;
77280;SDS011;66339;47.262;17.144;2023-09-08T09:06:25;8.82;;;4.03;;
77280;SDS011;66339;47.262;17.144;2023-09-08T09:08:54;6.55;;;3.87;;
77280;SDS011;66339;47.262;17.144;2023-09-08T09:11:31;7.72;;;3.87;;
77280;SDS011;66339;47.262;17.144;2023-09-08T09:13:58;9.23;;;4.20;;
77280;SDS011;66339;47.262;17.144;2023-09-08T09:16:38;7.65;;;3.92;;
77280;SDS011;66339;47.262;17.144;2023-09-08T09:19:06;9.82;;;4.03;;
77280;SDS011;66339;47.262;17.144;2023-09-08T09:21:44;9.43;;;4.00;;
77280;SDS011;66339;47.262;17.144;2023-09-08T09:24:27;9.50;;;3.78;;
77280;SDS011;66339;47.262;17.144;2023-09-08T09:27:19;6.45;;;3.95;;
77280;SDS011;66339;47.262;17.144;2023-09-08T09:29:51;6.95;;;3.80;;
77280;SDS011;66339;47.262;17.144;2023-09-08T09:32:24;6.07;;;3.62;;
77280;SDS011;66339;47.262;17.144;2023-09-08T09:34:55;7.32;;;3.62;;
77280;SDS011;66339;47.262;17.144;2023-09-08T09:37:23;6.85;;;4.00;;
77280;SDS011;66339;47.262;17.144;2023-09-08T09:39:54;8.73;;;3.70;;
77280;SDS011;66339;47.262;17.144;2023-09-08T09:42:25;5.30;;;3.87;;
77280;SDS011;66339;47.262;17.144;2023-09-08T09:44:54;12.37;;;4.05;;
77280;SDS011;66339;47.262;17.144;2023-09-08T09:47:22;6.72;;;4.15;;
77280;SDS011;66339;47.262;17.144;2023-09-08T09:49:49;6.22;;;3.78;;
77280;SDS011;66339;47.262;17.144;2023-09-08T09:52:21;21.35;;;3.90;;
77280;SDS011;66339;47.262;17.144;2023-09-08T09:54:55;7.75;;;3.55;;
77280;SDS011;66339;47.262;17.144;2023-09-08T09:57:29;14.43;;;4.00;;
77280;SDS011;66339;47.262;17.144;2023-09-08T10:00:01;7.57;;;3.72;;
77280;SDS011;66339;47.262;17.144;2023-09-08T10:02:35;5.28;;;3.80;;
77280;SDS011;66339;47.262;17.144;2023-09-08T10:05:13;7.90;;;3.78;;
77280;SDS011;66339;47.262;17.144;2023-09-08T10:07:40;7.62;;;3.50;;
77280;SDS011;66339;47.262;17.144;2023-09-08T10:10:09;10.40;;;4.03;;
77280;SDS011;66339;47.262;17.144;2023-09-08T10:12:37;7.00;;;3.80;;
77280;SDS011;66339;47.262;17.144;2023-09-08T10:15:08;7.80;;;3.83;;
77280;SDS011;66339;47.262;17.144;2023-09-08T10:17:43;10.93;;;3.80;;
77280;SDS011;66339;47.262;17.144;2023-09-08T10:20:13;7.60;;;3.55;;
77280;SDS011;66339;47.262;17.144;2023-09-08T10:22:46;8.93;;;3.22;;
77280;SDS011;66339;47.262;17.144;2023-09-08T10:25:24;8.13;;;3.53;;
77280;SDS011;66339;47.262;17.144;2023-09-08T10:27:58;12.55;;;3.72;;
77280;SDS011;66339;47.262;17.144;2023-09-08T10:30:26;7.97;;;3.75;;
77280;SDS011;66339;47.262;17.144;2023-09-08T10:33:00;8.98;;;3.30;;
77280;SDS011;66339;47.262;17.144;2023-09-08T10:35:40;8.90;;;3.70;;
77280;SDS011;66339;47.262;17.144;2023-09-08T10:38:55;10.68;;;3.78;;
77280;SDS011;66339;47.262;17.144;2023-09-08T10:43:46;12.48;;;3.47;;
77280;SDS011;66339;47.262;17.144;2023-09-08T10:46:28;6.85;;;3.50;;
77280;SDS011;66339;47.262;17.144;2023-09-08T10:49:04;7.80;;;3.75;;
77280;SDS011;66339;47.262;17.144;2023-09-08T10:51:32;6.47;;;3.63;;
77280;SDS011;66339;47.262;17.144;2023-09-08T10:54:01;7.85;;;3.78;;
77280;SDS011;66339;47.262;17.144;2023-09-08T10:56:48;9.40;;;4.35;;
77280;SDS011;66339;47.262;17.144;2023-09-08T10:59:27;4.82;;;3.33;;
77280;SDS011;66339;47.262;17.144;2023-09-08T11:02:03;7.15;;;5.00;;
77280;SDS011;66339;47.262;17.144;2023-09-08T11:04:34;7.18;;;3.42;;
77280;SDS011;66339;47.262;17.144;2023-09-08T11:07:04;5.35;;;3.35;;
77280;SDS011;66339;47.262;17.144;2023-09-08T11:09:36;6.53;;;3.55;;
77280;SDS011;66339;47.262;17.144;2023-09-08T11:12:03;5.75;;;3.03;;
77280;SDS011;66339;47.262;17.144;2023-09-08T11:14:33;8.18;;;4.25;;
77280;SDS011;66339;47.262;17.144;2023-09-08T11:17:02;6.57;;;3.40;;
77280;SDS011;66339;47.262;17.144;2023-09-08T11:19:45;6.75;;;3.35;;
77280;SDS011;66339;47.262;17.144;2023-09-08T11:22:18;4.93;;;3.30;;
77280;SDS011;66339;47.262;17.144;2023-09-08T11:24:48;4.90;;;3.12;;
77280;SDS011;66339;47.262;17.144;2023-09-08T11:27:19;6.22;;;3.33;;
77280;SDS011;66339;47.262;17.144;2023-09-08T11:29:50;5.87;;;3.30;;
77280;SDS011;66339;47.262;17.144;2023-09-08T11:32:18;5.75;;;3.30;;
77280;SDS011;66339;47.262;17.144;2023-09-08T11:34:48;5.00;;;3.37;;
77280;SDS011;66339;47.262;17.144;2023-09-08T11:37:19;5.47;;;3.30;;
77280;SDS011;66339;47.262;17.144;2023-09-08T11:39:49;6.05;;;3.12;;
77280;SDS011;66339;47.262;17.144;2023-09-08T11:42:20;4.32;;;3.10;;
77280;SDS011;66339;47.262;17.144;2023-09-08T11:44:48;8.25;;;3.67;;
77280;SDS011;66339;47.262;17.144;2023-09-08T11:47:18;6.60;;;3.30;;
77280;SDS011;66339;47.262;17.144;2023-09-08T11:49:48;5.43;;;3.10;;
77280;SDS011;66339;47.262;17.144;2023-09-08T11:52:22;6.68;;;3.30;;
77280;SDS011;66339;47.262;17.144;2023-09-08T11:54:51;5.87;;;3.42;;
77280;SDS011;66339;47.262;17.144;2023-09-08T11:57:36;4.87;;;3.40;;
77280;SDS011;66339;47.262;17.144;2023-09-08T12:00:11;4.97;;;3.20;;
77280;SDS011;66339;47.262;17.144;2023-09-08T12:02:46;5.28;;;3.47;;
77280;SDS011;66339;47.262;17.144;2023-09-08T12:05:24;5.25;;;2.92;;
77280;SDS011;66339;47.262;17.144;2023-09-08T12:07:56;5.28;;;3.00;;
77280;SDS011;66339;47.262;17.144;2023-09-08T12:10:25;6.12;;;3.30;;
77280;SDS011;66339;47.262;17.144;2023-09-08T12:12:55;5.57;;;3.05;;
77280;SDS011;66339;47.262;17.144;2023-09-08T12:15:32;7.32;;;3.12;;
77280;SDS011;66339;47.262;17.144;2023-09-08T12:18:05;6.85;;;3.17;;
77280;SDS011;66339;47.262;17.144;2023-09-08T12:20:41;4.50;;;2.97;;
77280;SDS011;66339;47.262;17.144;2023-09-08T12:23:16;4.50;;;3.30;;
77280;SDS011;66339;47.262;17.144;2023-09-08T12:25:49;4.18;;;2.97;;
77280;SDS011;66339;47.262;17.144;2023-09-08T12:28:19;5.35;;;3.17;;
77280;SDS011;66339;47.262;17.144;2023-09-08T12:30:51;4.62;;;2.92;;
77280;SDS011;66339;47.262;17.144;2023-09-08T12:33:22;4.50;;;2.95;;
77280;SDS011;66339;47.262;17.144;2023-09-08T12:35:49;5.68;;;3.40;;
77280;SDS011;66339;47.262;17.144;2023-09-08T12:38:23;5.40;;;2.72;;
77280;SDS011;66339;47.262;17.144;2023-09-08T12:40:57;4.72;;;3.10;;
77280;SDS011;66339;47.262;17.144;2023-09-08T12:43:31;4.72;;;2.95;;
77280;SDS011;66339;47.262;17.144;2023-09-08T12:46:02;4.72;;;2.95;;
77280;SDS011;66339;47.262;17.144;2023-09-08T12:48:35;4.55;;;3.10;;
77280;SDS011;66339;47.262;17.144;2023-09-08T12:51:06;3.40;;;2.60;;
77280;SDS011;66339;47.262;17.144;2023-09-08T12:56:05;5.05;;;3.00;;
77280;SDS011;66339;47.262;17.144;2023-09-08T12:58:36;5.78;;;3.17;;
77280;SDS011;66339;47.262;17.144;2023-09-08T13:01:04;3.80;;;2.83;;
77280;SDS011;66339;47.262;17.144;2023-09-08T13:03:31;5.97;;;3.58;;
77280;SDS011;66339;47.262;17.144;2023-09-08T13:06:01;5.70;;;3.05;;
77280;SDS011;66339;47.262;17.144;2023-09-08T13:08:32;4.50;;;3.17;;
77280;SDS011;66339;47.262;17.144;2023-09-08T13:11:03;3.83;;;2.90;;
77280;SDS011;66339;47.262;17.144;2023-09-08T13:13:34;3.53;;;2.60;;
77280;SDS011;66339;47.262;17.144;2023-09-08T13:16:02;3.78;;;2.65;;
77280;SDS011;66339;47.262;17.144;2023-09-08T13:18:29;6.15;;;3.10;;
77280;SDS011;66339;47.262;17.144;2023-09-08T13:20:57;4.43;;;2.97;;
77280;SDS011;66339;47.262;17.144;2023-09-08T13:23:24;4.25;;;2.75;;
77280;SDS011;66339;47.262;17.144;2023-09-08T13:25:54;3.45;;;2.62;;
77280;SDS011;66339;47.262;17.144;2023-09-08T13:28:24;5.45;;;2.90;;
77280;SDS011;66339;47.262;17.144;2023-09-08T13:30:58;4.30;;;2.97;;
77280;SDS011;66339;47.262;17.144;2023-09-08T13:33:29;4.68;;;3.12;;
77280;SDS011;66339;47.262;17.144;2023-09-08T13:36:02;3.80;;;2.70;;
77280;SDS011;66339;47.262;17.144;2023-09-08T13:38:31;3.60;;;2.50;;
77280;SDS011;66339;47.262;17.144;2023-09-08T13:41:02;7.37;;;2.75;;
77280;SDS011;66339;47.262;17.144;2023-09-08T13:43:35;6.82;;;2.87;;
77280;SDS011;66339;47.262;17.144;2023-09-08T13:46:05;4.55;;;2.90;;
77280;SDS011;66339;47.262;17.144;2023-09-08T13:48:32;5.22;;;2.90;;
77280;SDS011;66339;47.262;17.144;2023-09-08T13:51:07;5.60;;;3.08;;
77280;SDS011;66339;47.262;17.144;2023-09-08T13:53:39;7.37;;;3.20;;
77280;SDS011;66339;47.262;17.144;2023-09-08T13:56:16;6.00;;;3.15;;
77280;SDS011;66339;47.262;17.144;2023-09-08T13:58:55;5.20;;;2.60;;
77280;SDS011;66339;47.262;17.144;2023-09-08T14:01:32;4.68;;;3.08;;
77280;SDS011;66339;47.262;17.144;2023-09-08T14:04:07;7.25;;;3.20;;
77280;SDS011;66339;47.262;17.144;2023-09-08T14:06:36;5.37;;;2.95;;
77280;SDS011;66339;47.262;17.144;2023-09-08T14:09:10;6.55;;;3.25;;
77280;SDS011;66339;47.262;17.144;2023-09-08T14:11:44;8.30;;;2.97;;
77280;SDS011;66339;47.262;17.144;2023-09-08T14:14:17;4.00;;;2.35;;
77280;SDS011;66339;47.262;17.144;2023-09-08T14:16:48;4.45;;;2.90;;
77280;SDS011;66339;47.262;17.144;2023-09-08T14:19:15;3.92;;;2.87;;
77280;SDS011;66339;47.262;17.144;2023-09-08T14:21:49;5.40;;;3.00;;
77280;SDS011;66339;47.262;17.144;2023-09-08T14:24:19;5.28;;;2.80;;
77280;SDS011;66339;47.262;17.144;2023-09-08T14:26:47;6.68;;;3.00;;
77280;SDS011;66339;47.262;17.144;2023-09-08T14:29:15;6.55;;;2.87;;
77280;SDS011;66339;47.262;17.144;2023-09-08T14:31:42;5.35;;;3.30;;
77280;SDS011;66339;47.262;17.144;2023-09-08T14:34:10;6.05;;;3.12;;
77280;SDS011;66339;47.262;17.144;2023-09-08T14:36:40;5.35;;;2.90;;
77280;SDS011;66339;47.262;17.144;2023-09-08T14:39:14;5.45;;;3.42;;
77280;SDS011;66339;47.262;17.144;2023-09-08T14:41:45;7.47;;;2.97;;
77280;SDS011;66339;47.262;17.144;2023-09-08T14:44:15;4.87;;;2.47;;
77280;SDS011;66339;47.262;17.144;2023-09-08T14:46:50;4.95;;;2.80;;
77280;SDS011;66339;47.262;17.144;2023-09-08T14:49:27;8.00;;;3.53;;
77280;SDS011;66339;47.262;17.144;2023-09-08T14:52:01;5.20;;;2.60;;
77280;SDS011;66339;47.262;17.144;2023-09-08T14:54:29;10.80;;;3.28;;
77280;SDS011;66339;47.262;17.144;2023-09-08T14:56:56;4.68;;;3.03;;
77280;SDS011;66339;47.262;17.144;2023-09-08T14:59:27;5.60;;;3.20;;
77280;SDS011;66339;47.262;17.144;2023-09-08T15:02:01;7.18;;;3.00;;
77280;SDS011;66339;47.262;17.144;2023-09-08T15:04:28;4.93;;;2.62;;
77280;SDS011;66339;47.262;17.144;2023-09-08T15:06:59;5.90;;;2.80;;
77280;SDS011;66339;47.262;17.144;2023-09-08T15:09:32;6.80;;;2.97;;